createdAt,value
2023-04-11T00:00:52.715Z,388.00
2023-04-11T00:01:52.984Z,388.00
2023-04-11T00:02:52.950Z,387.00
2023-04-11T00:03:53.057Z,387.00
2023-04-11T00:04:52.959Z,385.00
2023-04-11T00:05:53.106Z,384.00
2023-04-11T00:06:52.926Z,384.00
2023-04-11T00:07:52.958Z,386.00
2023-04-11T00:08:53.345Z,386.00
2023-04-11T00:09:53.036Z,385.00
2023-04-11T00:10:53.165Z,385.00
2023-04-11T00:11:53.142Z,384.00
2023-04-11T00:12:53.449Z,385.00
2023-04-11T00:13:53.499Z,385.00
2023-04-11T00:14:53.253Z,385.00
2023-04-11T00:15:53.319Z,386.00
2023-04-11T00:16:53.377Z,386.00
2023-04-11T00:17:53.455Z,387.00
2023-04-11T00:18:53.592Z,388.00
2023-04-11T00:19:53.506Z,388.00
2023-04-11T00:20:53.559Z,387.00
2023-04-11T00:21:53.626Z,386.00
2023-04-11T00:22:53.641Z,387.00
2023-04-11T00:23:53.688Z,389.00
2023-04-11T00:24:53.707Z,389.00
2023-04-11T00:25:53.742Z,390.00
2023-04-11T00:26:53.826Z,389.00
2023-04-11T00:27:53.822Z,390.00
2023-04-11T00:28:54.196Z,389.00
2023-04-11T00:29:53.905Z,388.00
2023-04-11T00:30:53.963Z,386.00
2023-04-11T00:31:54.039Z,386.00
2023-04-11T00:32:54.171Z,386.00
2023-04-11T00:33:54.116Z,387.00
2023-04-11T00:34:54.156Z,386.00
2023-04-11T00:35:54.346Z,383.00
2023-04-11T00:36:54.281Z,383.00
2023-04-11T00:37:54.292Z,381.00
2023-04-11T00:38:54.716Z,384.00
2023-04-11T00:39:54.374Z,382.00
2023-04-11T00:40:54.419Z,382.00
2023-04-11T00:41:54.476Z,382.00
2023-04-11T00:42:54.546Z,384.00
2023-04-11T00:43:54.585Z,384.00
2023-04-11T00:44:54.624Z,384.00
2023-04-11T00:45:54.720Z,385.00
2023-04-11T00:46:54.730Z,388.00
2023-04-11T00:47:54.799Z,389.00
2023-04-11T00:48:55.201Z,388.00
2023-04-11T00:49:54.866Z,388.00
2023-04-11T00:50:54.910Z,387.00
2023-04-11T00:51:54.957Z,384.00
2023-04-11T00:52:55.033Z,382.00
2023-04-11T00:53:55.053Z,381.00
2023-04-11T00:54:55.087Z,381.00
2023-04-11T00:55:55.658Z,382.00
2023-04-11T00:56:55.156Z,382.00
2023-04-11T00:57:55.205Z,383.00
2023-04-11T00:58:55.473Z,383.00
2023-04-11T00:59:55.280Z,382.00
2023-04-11T01:00:55.322Z,381.00
2023-04-11T01:01:55.437Z,382.00
2023-04-11T01:02:55.544Z,381.00
2023-04-11T01:03:56.179Z,383.00
2023-04-11T01:04:55.433Z,384.00
2023-04-11T01:05:55.482Z,384.00
2023-04-11T01:06:55.515Z,383.00
2023-04-11T01:07:55.563Z,384.00
2023-04-11T01:08:55.740Z,382.00
2023-04-11T01:09:55.635Z,382.00
2023-04-11T01:10:55.664Z,384.00
2023-04-11T01:11:55.712Z,385.00
2023-04-11T01:12:55.750Z,389.00
2023-04-11T01:13:55.805Z,388.00
2023-04-11T01:14:55.874Z,385.00
2023-04-11T01:15:55.885Z,388.00
2023-04-11T01:16:56.804Z,388.00
2023-04-11T01:17:56.027Z,390.00
2023-04-11T01:18:56.155Z,391.00
2023-04-11T01:19:56.071Z,390.00
2023-04-11T01:20:56.118Z,389.00
2023-04-11T01:21:56.141Z,391.00
2023-04-11T01:22:56.167Z,393.00
2023-04-11T01:23:56.199Z,394.00
2023-04-11T01:24:56.215Z,394.00
2023-04-11T01:25:56.215Z,394.00
2023-04-11T01:26:57.223Z,393.00
2023-04-11T01:27:56.261Z,394.00
2023-04-11T01:28:56.476Z,392.00
2023-04-11T01:29:56.312Z,395.00
2023-04-11T01:30:56.434Z,395.00
2023-04-11T01:31:56.362Z,396.00
2023-04-11T01:32:56.428Z,395.00
2023-04-11T01:33:56.432Z,392.00
2023-04-11T01:34:56.455Z,392.00
2023-04-11T01:35:56.512Z,393.00
2023-04-11T01:36:56.525Z,393.00
2023-04-11T01:37:56.578Z,395.00
2023-04-11T01:38:56.744Z,397.00
2023-04-11T01:39:56.680Z,398.00
2023-04-11T01:40:56.721Z,397.00
2023-04-11T01:41:57.675Z,394.00
2023-04-11T01:42:56.786Z,392.00
2023-04-11T01:43:56.829Z,391.00
2023-04-11T01:44:56.842Z,391.00
2023-04-11T01:45:56.873Z,390.00
2023-04-11T01:46:56.929Z,393.00
2023-04-11T01:47:57.056Z,394.00
2023-04-11T01:48:57.156Z,393.00
2023-04-11T01:49:57.025Z,392.00
2023-04-11T01:50:57.067Z,393.00
2023-04-11T01:51:57.118Z,393.00
2023-04-11T01:52:57.184Z,391.00
2023-04-11T01:53:57.633Z,391.00
2023-04-11T01:54:57.278Z,392.00
2023-04-11T01:55:57.331Z,391.00
2023-04-11T01:56:57.374Z,388.00
2023-04-11T01:57:57.428Z,388.00
2023-04-11T01:58:57.797Z,388.00
2023-04-11T01:59:57.527Z,387.00
2023-04-11T02:00:57.977Z,387.00
2023-04-11T02:01:58.134Z,389.00
2023-04-11T02:02:57.839Z,388.00
2023-04-11T02:03:57.833Z,387.00
2023-04-11T02:04:57.764Z,385.00
2023-04-11T02:05:57.848Z,385.00
2023-04-11T02:06:57.845Z,384.00
2023-04-11T02:07:57.889Z,383.00
2023-04-11T02:08:57.987Z,385.00
2023-04-11T02:09:57.994Z,387.00
2023-04-11T02:10:58.011Z,386.00
2023-04-11T02:11:58.507Z,385.00
2023-04-11T02:12:58.110Z,383.00
2023-04-11T02:13:58.160Z,382.00
2023-04-11T02:14:58.194Z,382.00
2023-04-11T02:15:58.331Z,383.00
2023-04-11T02:16:58.305Z,383.00
2023-04-11T02:17:58.379Z,386.00
2023-04-11T02:18:58.582Z,384.00
2023-04-11T02:19:58.461Z,384.00
2023-04-11T02:20:58.509Z,384.00
2023-04-11T02:21:58.574Z,383.00
2023-04-11T02:22:58.605Z,381.00
2023-04-11T02:24:00.279Z,382.00
2023-04-11T02:24:58.636Z,386.00
2023-04-11T02:25:58.630Z,388.00
2023-04-11T02:26:58.604Z,391.00
2023-04-11T02:27:58.587Z,390.00
2023-04-11T02:28:58.579Z,387.00
2023-04-11T02:29:58.578Z,389.00
2023-04-11T02:30:58.602Z,389.00
2023-04-11T02:31:58.614Z,387.00
2023-04-11T02:32:58.537Z,383.00
2023-04-11T02:33:58.510Z,380.00
2023-04-11T02:34:58.522Z,381.00
2023-04-11T02:35:58.503Z,383.00
2023-04-11T02:36:58.471Z,381.00
2023-04-11T02:37:58.462Z,382.00
2023-04-11T02:38:58.442Z,384.00
2023-04-11T02:39:58.433Z,383.00
2023-04-11T02:40:58.418Z,385.00
2023-04-11T02:41:58.402Z,386.00
2023-04-11T02:42:59.048Z,384.00
2023-04-11T02:43:58.377Z,385.00
2023-04-11T02:44:58.354Z,389.00
2023-04-11T02:46:09.633Z,390.00
2023-04-11T02:46:58.367Z,391.00
2023-04-11T02:47:58.407Z,390.00
2023-04-11T02:48:58.331Z,388.00
2023-04-11T02:49:58.272Z,386.00
2023-04-11T02:50:58.297Z,384.00
2023-04-11T02:51:58.257Z,384.00
2023-04-11T02:52:58.238Z,384.00
2023-04-11T02:53:58.291Z,384.00
2023-04-11T02:54:58.203Z,384.00
2023-04-11T02:55:58.188Z,384.00
2023-04-11T02:56:58.162Z,383.00
2023-04-11T02:57:58.142Z,385.00
2023-04-11T02:58:58.541Z,386.00
2023-04-11T02:59:58.114Z,387.00
2023-04-11T03:00:58.092Z,390.00
2023-04-11T03:01:58.205Z,389.00
2023-04-11T03:02:58.117Z,389.00
2023-04-11T03:03:58.148Z,387.00
2023-04-11T03:04:58.009Z,387.00
2023-04-11T03:05:58.003Z,384.00
2023-04-11T03:06:58.003Z,384.00
2023-04-11T03:07:57.970Z,384.00
2023-04-11T03:08:58.187Z,382.00
2023-04-11T03:09:57.949Z,383.00
2023-04-11T03:10:57.920Z,382.00
2023-04-11T03:11:57.904Z,379.00
2023-04-11T03:12:58.547Z,380.00
2023-04-11T03:13:57.919Z,379.00
2023-04-11T03:14:57.934Z,383.00
2023-04-11T03:15:57.898Z,379.00
2023-04-11T03:16:57.844Z,380.00
2023-04-11T03:17:57.809Z,383.00
2023-04-11T03:18:57.969Z,382.00
2023-04-11T03:19:57.903Z,382.00
2023-04-11T03:20:57.946Z,382.00
2023-04-11T03:21:57.977Z,384.00
2023-04-11T03:22:58.075Z,386.00
2023-04-11T03:23:58.100Z,386.00
2023-04-11T03:24:58.107Z,385.00
2023-04-11T03:25:58.157Z,386.00
2023-04-11T03:26:58.166Z,384.00
2023-04-11T03:27:58.174Z,381.00
2023-04-11T03:28:58.215Z,379.00
2023-04-11T03:29:58.244Z,377.00
2023-04-11T03:30:58.309Z,379.00
2023-04-11T03:31:58.338Z,384.00
2023-04-11T03:32:58.432Z,386.00
2023-04-11T03:33:58.435Z,387.00
2023-04-11T03:34:58.481Z,385.00
2023-04-11T03:35:58.562Z,385.00
2023-04-11T03:36:58.581Z,384.00
2023-04-11T03:37:58.626Z,383.00
2023-04-11T03:38:58.710Z,384.00
2023-04-11T03:39:58.730Z,383.00
2023-04-11T03:40:58.777Z,381.00
2023-04-11T03:41:58.838Z,379.00
2023-04-11T03:42:58.892Z,379.00
2023-04-11T03:43:58.945Z,382.00
2023-04-11T03:44:58.997Z,383.00
2023-04-11T03:45:59.037Z,385.00
2023-04-11T03:46:59.153Z,386.00
2023-04-11T03:47:59.182Z,383.00
2023-04-11T03:48:59.196Z,385.00
2023-04-11T03:49:59.243Z,387.00
2023-04-11T03:50:59.421Z,388.00
2023-04-11T03:51:59.323Z,389.00
2023-04-11T03:52:59.388Z,389.00
2023-04-11T03:53:59.426Z,388.00
2023-04-11T03:54:59.498Z,388.00
2023-04-11T03:55:59.528Z,388.00
2023-04-11T03:56:59.569Z,387.00
2023-04-11T03:57:59.626Z,386.00
2023-04-11T03:58:59.668Z,386.00
2023-04-11T03:59:59.717Z,388.00
2023-04-11T04:00:59.760Z,388.00
2023-04-11T04:01:59.979Z,387.00
2023-04-11T04:03:00.051Z,386.00
2023-04-11T04:04:00.542Z,384.00
2023-04-11T04:04:59.980Z,386.00
2023-04-11T04:06:00.010Z,383.00
2023-04-11T04:07:00.059Z,381.00
2023-04-11T04:08:00.141Z,379.00
2023-04-11T04:09:00.182Z,378.00
2023-04-11T04:10:00.205Z,378.00
2023-04-11T04:11:00.274Z,377.00
2023-04-11T04:12:00.289Z,378.00
2023-04-11T04:13:00.337Z,381.00
2023-04-11T04:14:00.386Z,381.00
2023-04-11T04:15:00.441Z,382.00
2023-04-11T04:16:03.304Z,385.00
2023-04-11T04:17:00.659Z,382.00
2023-04-11T04:18:00.523Z,382.00
2023-04-11T04:19:00.453Z,380.00
2023-04-11T04:20:00.429Z,380.00
2023-04-11T04:21:00.902Z,382.00
2023-04-11T04:22:00.391Z,382.00
2023-04-11T04:23:00.399Z,382.00
2023-04-11T04:24:00.368Z,384.00
2023-04-11T04:25:00.343Z,386.00
2023-04-11T04:26:01.152Z,386.00
2023-04-11T04:27:00.348Z,386.00
2023-04-11T04:28:00.308Z,387.00
2023-04-11T04:29:00.300Z,385.00
2023-04-11T04:30:03.952Z,387.00
2023-04-11T04:31:00.270Z,388.00
2023-04-11T04:32:00.307Z,388.00
2023-04-11T04:33:00.273Z,391.00
2023-04-11T04:34:00.280Z,393.00
2023-04-11T04:35:00.290Z,395.00
2023-04-11T04:36:00.437Z,391.00
2023-04-11T04:37:00.381Z,388.00
2023-04-11T04:38:00.425Z,387.00
2023-04-11T04:39:00.441Z,389.00
2023-04-11T04:40:00.438Z,391.00
2023-04-11T04:41:00.442Z,390.00
2023-04-11T04:42:00.448Z,388.00
2023-04-11T04:43:00.480Z,386.00
2023-04-11T04:44:00.475Z,384.00
2023-04-11T04:45:00.484Z,383.00
2023-04-11T04:46:00.541Z,382.00
2023-04-11T04:47:00.499Z,385.00
2023-04-11T04:48:00.821Z,383.00
2023-04-11T04:49:02.302Z,386.00
2023-04-11T04:50:00.531Z,385.00
2023-04-11T04:51:00.527Z,384.00
2023-04-11T04:52:00.494Z,384.00
2023-04-11T04:53:00.496Z,386.00
2023-04-11T04:54:00.491Z,387.00
2023-04-11T04:55:00.698Z,386.00
2023-04-11T04:56:00.435Z,387.00
2023-04-11T04:57:00.689Z,385.00
2023-04-11T04:58:00.408Z,385.00
2023-04-11T04:59:00.435Z,386.00
2023-04-11T05:00:00.386Z,384.00
2023-04-11T05:01:00.901Z,382.00
2023-04-11T05:02:00.411Z,384.00
2023-04-11T05:03:01.055Z,384.00
2023-04-11T05:04:01.114Z,382.00
2023-04-11T05:05:00.325Z,382.00
2023-04-11T05:06:00.767Z,385.00
2023-04-11T05:07:00.275Z,387.00
2023-04-11T05:08:00.266Z,385.00
2023-04-11T05:09:00.248Z,384.00
2023-04-11T05:10:00.658Z,382.00
2023-04-11T05:11:00.282Z,385.00
2023-04-11T05:12:00.316Z,389.00
2023-04-11T05:13:00.343Z,390.00
2023-04-11T05:14:00.386Z,389.00
2023-04-11T05:15:00.450Z,390.00
2023-04-11T05:16:00.448Z,393.00
2023-04-11T05:17:00.552Z,393.00
2023-04-11T05:18:00.542Z,394.00
2023-04-11T05:19:00.579Z,397.00
2023-04-11T05:20:01.188Z,399.00
2023-04-11T05:21:00.770Z,403.00
2023-04-11T05:22:00.770Z,408.00
2023-04-11T05:23:00.734Z,410.00
2023-04-11T05:24:01.266Z,411.00
2023-04-11T05:25:00.815Z,419.00
2023-04-11T05:26:00.926Z,442.00
2023-04-11T05:27:00.908Z,440.00
2023-04-11T05:28:00.931Z,438.00
2023-04-11T05:29:00.980Z,440.00
2023-04-11T05:30:01.666Z,440.00
2023-04-11T05:31:01.942Z,440.00
2023-04-11T05:32:01.134Z,442.00
2023-04-11T05:33:01.734Z,446.00
2023-04-11T05:34:01.153Z,447.00
2023-04-11T05:35:01.190Z,447.00
2023-04-11T05:36:01.329Z,450.00
2023-04-11T05:37:01.271Z,454.00
2023-04-11T05:38:01.298Z,458.00
2023-04-11T05:39:01.331Z,462.00
2023-04-11T05:40:01.364Z,466.00
2023-04-11T05:41:01.774Z,466.00
2023-04-11T05:42:01.427Z,468.00
2023-04-11T05:43:01.451Z,471.00
2023-04-11T05:44:01.780Z,500.00
2023-04-11T05:45:01.524Z,507.00
2023-04-11T05:46:01.919Z,513.00
2023-04-11T05:47:01.715Z,512.00
2023-04-11T05:48:02.094Z,520.00
2023-04-11T05:49:01.789Z,530.00
2023-04-11T05:50:01.803Z,539.00
2023-04-11T05:51:01.770Z,622.00
2023-04-11T05:52:01.733Z,663.00
2023-04-11T05:53:01.802Z,667.00
2023-04-11T05:54:01.855Z,678.00
2023-04-11T05:55:03.246Z,691.00
2023-04-11T05:56:01.811Z,710.00
2023-04-11T05:57:01.818Z,728.00
2023-04-11T05:58:02.304Z,753.00
2023-04-11T05:59:01.842Z,757.00
2023-04-11T06:00:01.983Z,769.00
2023-04-11T06:01:01.853Z,815.00
2023-04-11T06:02:09.531Z,829.00
2023-04-11T06:03:01.907Z,839.00
2023-04-11T06:04:02.478Z,850.00
2023-04-11T06:05:02.865Z,860.00
2023-04-11T06:06:01.739Z,886.00
2023-04-11T06:07:17.299Z,903.00
2023-04-11T06:08:04.908Z,910.00
2023-04-11T06:09:09.106Z,922.00
2023-04-11T06:10:01.830Z,929.00
2023-04-11T06:11:02.630Z,947.00
2023-04-11T06:12:01.667Z,949.00
2023-04-11T06:13:01.582Z,948.00
2023-04-11T06:14:01.954Z,948.00
2023-04-11T06:15:02.556Z,954.00
2023-04-11T06:16:01.598Z,963.00
2023-04-11T06:17:02.494Z,970.00
2023-04-11T06:18:01.655Z,973.00
2023-04-11T06:19:01.792Z,976.00
2023-04-11T06:20:02.415Z,979.00
2023-04-11T06:21:02.039Z,983.00
2023-04-11T06:22:01.791Z,988.00
2023-04-11T06:23:01.414Z,987.00
2023-04-11T06:24:01.352Z,984.00
2023-04-11T06:25:01.390Z,985.00
2023-04-11T06:26:01.318Z,982.00
2023-04-11T06:27:01.302Z,980.00
2023-04-11T06:28:01.302Z,979.00
2023-04-11T06:29:01.267Z,973.00
2023-04-11T06:30:01.256Z,959.00
2023-04-11T06:31:01.271Z,957.00
2023-04-11T06:32:01.234Z,950.00
2023-04-11T06:33:01.356Z,948.00
2023-04-11T06:34:02.465Z,944.00
2023-04-11T06:35:01.172Z,942.00
2023-04-11T06:36:01.160Z,939.00
2023-04-11T06:37:01.184Z,942.00
2023-04-11T06:38:01.240Z,940.00
2023-04-11T06:39:02.346Z,937.00
2023-04-11T06:40:01.308Z,939.00
2023-04-11T06:41:01.347Z,943.00
2023-04-11T06:42:01.418Z,940.00
2023-04-11T06:43:05.003Z,939.00
2023-04-11T06:44:01.451Z,938.00
2023-04-11T06:45:01.395Z,938.00
2023-04-11T06:46:01.326Z,939.00
2023-04-11T06:47:01.330Z,953.00
2023-04-11T06:48:01.345Z,959.00
2023-04-11T06:49:01.243Z,960.00
2023-04-11T06:50:01.243Z,964.00
2023-04-11T06:51:01.181Z,970.00
2023-04-11T06:52:01.133Z,977.00
2023-04-11T06:53:01.305Z,977.00
2023-04-11T06:54:01.304Z,974.00
2023-04-11T06:55:01.053Z,976.00
2023-04-11T06:56:01.029Z,981.00
2023-04-11T06:57:01.011Z,981.00
2023-04-11T06:58:01.043Z,986.00
2023-04-11T06:59:01.314Z,986.00
2023-04-11T07:00:01.327Z,983.00
2023-04-11T07:01:01.137Z,983.00
2023-04-11T07:02:01.296Z,982.00
2023-04-11T07:03:01.440Z,985.00
2023-04-11T07:04:01.552Z,979.00
2023-04-11T07:05:01.350Z,969.00
2023-04-11T07:06:01.358Z,971.00
2023-04-11T07:07:01.314Z,977.00
2023-04-11T07:08:01.469Z,983.00
2023-04-11T07:09:01.397Z,981.00
2023-04-11T07:10:01.434Z,981.00
2023-04-11T07:11:01.468Z,977.00
2023-04-11T07:12:01.490Z,976.00
2023-04-11T07:13:01.521Z,973.00
2023-04-11T07:14:01.548Z,973.00
2023-04-11T07:15:01.598Z,968.00
2023-04-11T07:16:01.774Z,963.00
2023-04-11T07:17:01.709Z,958.00
2023-04-11T07:18:01.730Z,960.00
2023-04-11T07:19:01.723Z,963.00
2023-04-11T07:20:01.959Z,961.00
2023-04-11T07:21:01.800Z,962.00
2023-04-11T07:22:01.868Z,959.00
2023-04-11T07:23:01.863Z,959.00
2023-04-11T07:24:02.327Z,960.00
2023-04-11T07:25:01.938Z,959.00
2023-04-11T07:26:02.316Z,964.00
2023-04-11T07:27:02.099Z,968.00
2023-04-11T07:28:02.050Z,968.00
2023-04-11T07:29:02.106Z,973.00
2023-04-11T07:30:02.138Z,980.00
2023-04-11T07:31:02.343Z,974.00
2023-04-11T07:32:02.454Z,972.00
2023-04-11T07:33:02.218Z,970.00
2023-04-11T07:34:02.314Z,972.00
2023-04-11T07:35:02.250Z,978.00
2023-04-11T07:36:02.377Z,979.00
2023-04-11T07:37:02.338Z,969.00
2023-04-11T07:38:02.383Z,959.00
2023-04-11T07:39:02.379Z,969.00
2023-04-11T07:40:02.418Z,991.00
2023-04-11T07:41:03.867Z,1000.00
2023-04-11T07:42:02.521Z,989.00
2023-04-11T07:43:02.513Z,985.00
2023-04-11T07:44:02.827Z,967.00
2023-04-11T07:45:02.583Z,960.00
2023-04-11T07:46:03.275Z,959.00
2023-04-11T07:47:02.661Z,958.00
2023-04-11T07:48:02.701Z,957.00
2023-04-11T07:49:02.817Z,954.00
2023-04-11T07:50:03.153Z,955.00
2023-04-11T07:51:02.795Z,955.00
2023-04-11T07:52:02.833Z,955.00
2023-04-11T07:53:03.367Z,952.00
2023-04-11T07:54:02.897Z,960.00
2023-04-11T07:55:02.974Z,963.00
2023-04-11T07:56:03.445Z,966.00
2023-04-11T07:57:02.980Z,969.00
2023-04-11T07:58:02.998Z,970.00
2023-04-11T07:59:03.020Z,976.00
2023-04-11T08:00:03.049Z,980.00
2023-04-11T08:01:03.346Z,979.00
2023-04-11T08:02:03.616Z,975.00
2023-04-11T08:03:03.940Z,988.00
2023-04-11T08:04:03.987Z,1000.00
2023-04-11T08:05:03.690Z,996.00
2023-04-11T08:06:03.619Z,1002.00
2023-04-11T08:07:03.641Z,1002.00
2023-04-11T08:08:03.256Z,1005.00
2023-04-11T08:09:03.327Z,1001.00
2023-04-11T08:10:03.384Z,997.00
2023-04-11T08:11:03.379Z,995.00
2023-04-11T08:12:03.828Z,976.00
2023-04-11T08:13:03.399Z,975.00
2023-04-11T08:14:03.457Z,971.00
2023-04-11T08:15:03.445Z,980.00
2023-04-11T08:16:03.834Z,978.00
2023-04-11T08:17:04.521Z,980.00
2023-04-11T08:18:03.607Z,984.00
2023-04-11T08:19:03.846Z,980.00
2023-04-11T08:20:03.445Z,982.00
2023-04-11T08:21:03.379Z,988.00
2023-04-11T08:22:03.377Z,986.00
2023-04-11T08:23:05.766Z,979.00
2023-04-11T08:24:03.362Z,966.00
2023-04-11T08:25:03.305Z,958.00
2023-04-11T08:26:03.407Z,959.00
2023-04-11T08:27:03.239Z,954.00
2023-04-11T08:28:03.191Z,954.00
2023-04-11T08:29:04.193Z,950.00
2023-04-11T08:30:03.135Z,961.00
2023-04-11T08:31:03.371Z,975.00
2023-04-11T08:32:03.492Z,978.00
2023-04-11T08:33:03.112Z,984.00
2023-04-11T08:34:06.125Z,978.00
2023-04-11T08:35:02.993Z,977.00
2023-04-11T08:36:02.989Z,975.00
2023-04-11T08:37:02.923Z,974.00
2023-04-11T08:38:02.909Z,965.00
2023-04-11T08:39:03.342Z,965.00
2023-04-11T08:40:02.857Z,970.00
2023-04-11T08:41:02.826Z,978.00
2023-04-11T08:42:02.925Z,991.00
2023-04-11T08:43:02.832Z,1010.00
2023-04-11T08:44:03.409Z,1010.00
2023-04-11T08:45:03.362Z,1016.00
2023-04-11T08:46:03.033Z,1022.00
2023-04-11T08:47:02.979Z,1022.00
2023-04-11T08:48:03.178Z,1019.00
2023-04-11T08:49:03.006Z,1013.00
2023-04-11T08:50:03.365Z,1019.00
2023-04-11T08:51:03.071Z,1023.00
2023-04-11T08:52:03.038Z,1023.00
2023-04-11T08:53:03.213Z,1021.00
2023-04-11T08:54:03.358Z,1019.00
2023-04-11T08:55:03.116Z,1011.00
2023-04-11T08:56:03.132Z,1001.00
2023-04-11T08:57:03.154Z,996.00
2023-04-11T08:58:03.215Z,998.00
2023-04-11T08:59:03.343Z,995.00
2023-04-11T09:00:03.238Z,992.00
2023-04-11T09:01:03.515Z,987.00
2023-04-11T09:02:03.379Z,982.00
2023-04-11T09:03:03.798Z,978.00
2023-04-11T09:04:03.491Z,974.00
2023-04-11T09:05:03.409Z,973.00
2023-04-11T09:06:03.380Z,973.00
2023-04-11T09:07:03.601Z,976.00
2023-04-11T09:08:03.411Z,971.00
2023-04-11T09:09:03.520Z,964.00
2023-04-11T09:10:03.511Z,964.00
2023-04-11T09:11:03.859Z,1013.00
2023-04-11T09:12:03.481Z,1020.00
2023-04-11T09:13:03.500Z,1011.00
2023-04-11T09:14:03.880Z,989.00
2023-04-11T09:15:03.852Z,979.00
2023-04-11T09:16:03.601Z,979.00
2023-04-11T09:17:03.571Z,978.00
2023-04-11T09:18:03.627Z,977.00
2023-04-11T09:19:03.612Z,982.00
2023-04-11T09:20:03.855Z,985.00
2023-04-11T09:21:03.678Z,985.00
2023-04-11T09:22:03.692Z,987.00
2023-04-11T09:23:03.715Z,995.00
2023-04-11T09:24:03.898Z,1007.00
2023-04-11T09:25:03.782Z,1018.00
2023-04-11T09:26:03.788Z,1015.00
2023-04-11T09:27:03.817Z,1022.00
2023-04-11T09:28:03.845Z,1030.00
2023-04-11T09:29:04.361Z,1031.00
2023-04-11T09:30:04.460Z,1038.00
2023-04-11T09:31:03.949Z,1032.00
2023-04-11T09:32:04.357Z,1021.00
2023-04-11T09:33:04.027Z,1013.00
2023-04-11T09:34:04.369Z,997.00
2023-04-11T09:35:04.025Z,985.00
2023-04-11T09:36:04.104Z,967.00
2023-04-11T09:37:04.078Z,900.00
2023-04-11T09:38:04.102Z,869.00
2023-04-11T09:39:04.365Z,859.00
2023-04-11T09:40:05.734Z,810.00
2023-04-11T09:41:04.414Z,789.00
2023-04-11T09:42:05.371Z,776.00
2023-04-11T09:43:04.380Z,772.00
2023-04-11T09:44:04.420Z,770.00
2023-04-11T09:45:04.431Z,752.00
2023-04-11T09:46:04.976Z,721.00
2023-04-11T09:47:04.652Z,718.00
2023-04-11T09:48:04.552Z,710.00
2023-04-11T09:49:04.871Z,708.00
2023-04-11T09:50:04.581Z,689.00
2023-04-11T09:51:04.872Z,684.00
2023-04-11T09:52:04.872Z,670.00
2023-04-11T09:53:04.662Z,665.00
2023-04-11T09:54:06.129Z,662.00
2023-04-11T09:55:05.365Z,659.00
2023-04-11T09:56:04.947Z,654.00
2023-04-11T09:57:05.375Z,648.00
2023-04-11T09:58:05.391Z,637.00
2023-04-11T09:59:04.912Z,629.00
2023-04-11T10:00:04.872Z,622.00
2023-04-11T10:01:04.866Z,617.00
2023-04-11T10:02:04.978Z,615.00
2023-04-11T10:03:04.955Z,611.00
2023-04-11T10:04:04.871Z,609.00
2023-04-11T10:05:05.538Z,606.00
2023-04-11T10:06:04.770Z,600.00
2023-04-11T10:07:05.139Z,598.00
2023-04-11T10:08:05.113Z,593.00
2023-04-11T10:09:05.342Z,589.00
2023-04-11T10:10:05.078Z,584.00
2023-04-11T10:11:05.092Z,583.00
2023-04-11T10:12:05.311Z,580.00
2023-04-11T10:13:04.660Z,575.00
2023-04-11T10:14:04.649Z,573.00
2023-04-11T10:15:04.634Z,573.00
2023-04-11T10:16:04.655Z,571.00
2023-04-11T10:17:04.605Z,570.00
2023-04-11T10:18:04.650Z,567.00
2023-04-11T10:19:04.617Z,567.00
2023-04-11T10:20:04.572Z,566.00
2023-04-11T10:21:04.570Z,568.00
2023-04-11T10:22:04.898Z,566.00
2023-04-11T10:23:04.880Z,566.00
2023-04-11T10:24:04.533Z,559.00
2023-04-11T10:25:04.520Z,557.00
2023-04-11T10:26:05.252Z,561.00
2023-04-11T10:27:04.880Z,559.00
2023-04-11T10:28:04.704Z,556.00
2023-04-11T10:29:04.894Z,551.00
2023-04-11T10:30:04.678Z,551.00
2023-04-11T10:31:04.872Z,549.00
2023-04-11T10:32:05.439Z,543.00
2023-04-11T10:33:04.918Z,541.00
2023-04-11T10:34:04.687Z,540.00
2023-04-11T10:35:04.628Z,541.00
2023-04-11T10:36:04.641Z,541.00
2023-04-11T10:37:04.628Z,538.00
2023-04-11T10:38:04.595Z,539.00
2023-04-11T10:39:04.883Z,538.00
2023-04-11T10:40:04.607Z,537.00
2023-04-11T10:41:04.569Z,533.00
2023-04-11T10:42:04.567Z,532.00
2023-04-11T10:43:04.550Z,531.00
2023-04-11T10:44:04.883Z,527.00
2023-04-11T10:45:04.545Z,524.00
2023-04-11T10:46:04.564Z,524.00
2023-04-11T10:47:04.589Z,521.00
2023-04-11T10:48:04.566Z,521.00
2023-04-11T10:49:04.902Z,521.00
2023-04-11T10:50:04.562Z,518.00
2023-04-11T10:51:04.510Z,517.00
2023-04-11T10:52:04.510Z,516.00
2023-04-11T10:53:04.518Z,514.00
2023-04-11T10:54:05.133Z,513.00
2023-04-11T10:55:04.503Z,512.00
2023-04-11T10:56:04.785Z,512.00
2023-04-11T10:57:04.508Z,512.00
2023-04-11T10:58:04.905Z,509.00
2023-04-11T10:59:04.895Z,510.00
2023-04-11T11:01:03.628Z,505.00
2023-04-11T11:02:04.666Z,504.00
2023-04-11T11:03:04.609Z,504.00
2023-04-11T11:04:05.442Z,501.00
2023-04-11T11:05:04.659Z,500.00
2023-04-11T11:06:04.922Z,497.00
2023-04-11T11:07:04.745Z,491.00
2023-04-11T11:08:04.679Z,494.00
2023-04-11T11:09:05.022Z,504.00
2023-04-11T11:10:04.688Z,514.00
2023-04-11T11:11:04.691Z,555.00
2023-04-11T11:12:04.749Z,549.00
2023-04-11T11:13:05.012Z,547.00
2023-04-11T11:14:04.721Z,549.00
2023-04-11T11:15:04.695Z,570.00
2023-04-11T11:16:04.737Z,578.00
2023-04-11T11:17:04.883Z,578.00
2023-04-11T11:18:05.025Z,581.00
2023-04-11T11:19:04.761Z,579.00
2023-04-11T11:20:04.781Z,579.00
2023-04-11T11:21:07.366Z,581.00
2023-04-11T11:22:04.929Z,581.00
2023-04-11T11:23:04.903Z,577.00
2023-04-11T11:24:05.813Z,576.00
2023-04-11T11:25:04.834Z,572.00
2023-04-11T11:26:04.844Z,577.00
2023-04-11T11:27:04.876Z,577.00
2023-04-11T11:28:04.902Z,577.00
2023-04-11T11:29:05.920Z,578.00
2023-04-11T11:30:04.953Z,580.00
2023-04-11T11:31:04.965Z,576.00
2023-04-11T11:32:05.060Z,574.00
2023-04-11T11:33:05.100Z,569.00
2023-04-11T11:34:22.031Z,567.00
2023-04-11T11:35:05.404Z,570.00
2023-04-11T11:36:05.064Z,566.00
2023-04-11T11:37:05.019Z,560.00
2023-04-11T11:38:05.424Z,559.00
2023-04-11T11:39:04.939Z,557.00
2023-04-11T11:40:04.925Z,554.00
2023-04-11T11:41:04.897Z,579.00
2023-04-11T11:42:04.903Z,627.00
2023-04-11T11:43:04.903Z,626.00
2023-04-11T11:44:04.869Z,638.00
2023-04-11T11:45:04.821Z,640.00
2023-04-11T11:46:05.571Z,634.00
2023-04-11T11:47:04.777Z,634.00
2023-04-11T11:48:04.974Z,633.00
2023-04-11T11:49:04.783Z,617.00
2023-04-11T11:50:04.716Z,614.00
2023-04-11T11:51:04.720Z,614.00
2023-04-11T11:52:04.721Z,623.00
2023-04-11T11:53:04.653Z,622.00
2023-04-11T11:54:04.656Z,618.00
2023-04-11T11:55:04.609Z,619.00
2023-04-11T11:56:04.611Z,615.00
2023-04-11T11:57:04.580Z,608.00
2023-04-11T11:58:04.913Z,600.00
2023-04-11T11:59:04.506Z,597.00
2023-04-11T12:00:04.481Z,593.00
2023-04-11T12:01:04.457Z,593.00
2023-04-11T12:02:05.001Z,593.00
2023-04-11T12:03:05.020Z,592.00
2023-04-11T12:04:04.768Z,591.00
2023-04-11T12:05:04.882Z,587.00
2023-04-11T12:06:04.672Z,584.00
2023-04-11T12:07:04.689Z,581.00
2023-04-11T12:08:04.936Z,579.00
2023-04-11T12:09:04.734Z,579.00
2023-04-11T12:10:05.218Z,579.00
2023-04-11T12:11:04.783Z,577.00
2023-04-11T12:12:04.757Z,574.00
2023-04-11T12:13:04.915Z,568.00
2023-04-11T12:14:04.987Z,569.00
2023-04-11T12:15:04.917Z,569.00
2023-04-11T12:16:04.995Z,567.00
2023-04-11T12:17:04.905Z,565.00
2023-04-11T12:18:04.716Z,563.00
2023-04-11T12:19:04.961Z,566.00
2023-04-11T12:20:04.654Z,566.00
2023-04-11T12:21:04.643Z,568.00
2023-04-11T12:22:04.631Z,572.00
2023-04-11T12:23:04.959Z,577.00
2023-04-11T12:24:04.626Z,588.00
2023-04-11T12:25:04.632Z,598.00
2023-04-11T12:26:04.649Z,595.00
2023-04-11T12:27:07.441Z,594.00
2023-04-11T12:28:04.609Z,599.00
2023-04-11T12:29:04.928Z,600.00